sensor_id;sensor_type;location;lat;lon;timestamp;pressure;altitude;pressure_sealevel;temperature;humidity
28027;BME280;15344;52.342;-1.290;2023-08-20T00:01:25;100455.57;;;21.16;94.37
28027;BME280;15344;52.342;-1.290;2023-08-20T00:03:48;100460.91;;;21.18;92.44
28027;BME280;15344;52.342;-1.290;2023-08-20T00:06:13;100466.34;;;21.65;89.90
28027;BME280;15344;52.342;-1.290;2023-08-20T00:08:37;100466.93;;;21.48;91.64
28027;BME280;15344;52.342;-1.290;2023-08-20T00:11:03;100463.88;;;21.54;92.54
28027;BME280;15344;52.342;-1.290;2023-08-20T00:13:27;100469.90;;;21.66;90.56
28027;BME280;15344;52.342;-1.290;2023-08-20T00:15:53;100473.14;;;21.79;89.33
28027;BME280;15344;52.342;-1.290;2023-08-20T00:18:18;100469.06;;;21.61;88.37
28027;BME280;15344;52.342;-1.290;2023-08-20T00:20:43;100467.69;;;21.86;89.73
28027;BME280;15344;52.342;-1.290;2023-08-20T00:23:09;100472.46;;;21.95;86.93
28027;BME280;15344;52.342;-1.290;2023-08-20T00:25:34;100473.66;;;21.47;88.79
28027;BME280;15344;52.342;-1.290;2023-08-20T00:27:59;100477.96;;;21.42;90.53
28027;BME280;15344;52.342;-1.290;2023-08-20T00:30:24;100476.88;;;21.28;90.99
28027;BME280;15344;52.342;-1.290;2023-08-20T00:32:49;100479.01;;;20.61;94.85
28027;BME280;15344;52.342;-1.290;2023-08-20T00:35:14;100476.05;;;20.06;98.51
28027;BME280;15344;52.342;-1.290;2023-08-20T00:37:39;100475.79;;;20.14;99.69
28027;BME280;15344;52.342;-1.290;2023-08-20T00:40:05;100480.01;;;20.06;100.00
28027;BME280;15344;52.342;-1.290;2023-08-20T00:42:29;100486.12;;;19.34;100.00
28027;BME280;15344;52.342;-1.290;2023-08-20T00:44:54;100483.99;;;19.20;100.00
28027;BME280;15344;52.342;-1.290;2023-08-20T00:47:20;100478.67;;;19.30;100.00
28027;BME280;15344;52.342;-1.290;2023-08-20T00:49:46;100479.57;;;19.60;100.00
28027;BME280;15344;52.342;-1.290;2023-08-20T00:52:10;100482.48;;;19.73;100.00
28027;BME280;15344;52.342;-1.290;2023-08-20T00:54:35;100483.28;;;20.13;100.00
28027;BME280;15344;52.342;-1.290;2023-08-20T00:57:01;100483.72;;;19.97;100.00
28027;BME280;15344;52.342;-1.290;2023-08-20T00:59:25;100488.49;;;20.08;100.00
28027;BME280;15344;52.342;-1.290;2023-08-20T01:01:50;100489.47;;;20.09;100.00
28027;BME280;15344;52.342;-1.290;2023-08-20T01:04:15;100485.44;;;20.23;100.00
28027;BME280;15344;52.342;-1.290;2023-08-20T01:06:46;100481.48;;;20.86;97.27
28027;BME280;15344;52.342;-1.290;2023-08-20T01:09:10;100481.88;;;20.00;99.13
28027;BME280;15344;52.342;-1.290;2023-08-20T01:11:36;100484.35;;;20.89;95.74
28027;BME280;15344;52.342;-1.290;2023-08-20T01:13:57;100493.29;;;20.75;95.82
28027;BME280;15344;52.342;-1.290;2023-08-20T01:16:21;100501.36;;;20.88;95.20
28027;BME280;15344;52.342;-1.290;2023-08-20T01:18:47;100506.37;;;20.74;98.48
28027;BME280;15344;52.342;-1.290;2023-08-20T01:21:20;100509.26;;;20.15;100.00
28027;BME280;15344;52.342;-1.290;2023-08-20T01:26:15;100513.01;;;20.60;100.00
28027;BME280;15344;52.342;-1.290;2023-08-20T01:28:28;100511.96;;;20.51;100.00
28027;BME280;15344;52.342;-1.290;2023-08-20T01:30:53;100508.84;;;20.35;100.00
28027;BME280;15344;52.342;-1.290;2023-08-20T01:33:18;100512.61;;;20.84;100.00
28027;BME280;15344;52.342;-1.290;2023-08-20T01:35:42;100507.73;;;20.20;100.00
28027;BME280;15344;52.342;-1.290;2023-08-20T01:38:07;100511.89;;;19.95;100.00
28027;BME280;15344;52.342;-1.290;2023-08-20T01:40:33;100516.73;;;20.20;100.00
28027;BME280;15344;52.342;-1.290;2023-08-20T01:42:59;100515.36;;;20.32;100.00
28027;BME280;15344;52.342;-1.290;2023-08-20T01:45:24;100513.18;;;19.63;100.00
28027;BME280;15344;52.342;-1.290;2023-08-20T01:47:49;100509.89;;;20.12;100.00
28027;BME280;15344;52.342;-1.290;2023-08-20T01:50:14;100517.02;;;20.66;100.00
28027;BME280;15344;52.342;-1.290;2023-08-20T01:52:39;100516.25;;;20.87;100.00
28027;BME280;15344;52.342;-1.290;2023-08-20T01:55:05;100514.04;;;20.82;100.00
28027;BME280;15344;52.342;-1.290;2023-08-20T01:57:30;100512.83;;;20.86;100.00
28027;BME280;15344;52.342;-1.290;2023-08-20T01:59:55;100514.67;;;20.97;99.52
28027;BME280;15344;52.342;-1.290;2023-08-20T02:02:20;100513.33;;;20.39;100.00
28027;BME280;15344;52.342;-1.290;2023-08-20T02:04:45;100520.24;;;21.08;99.29
28027;BME280;15344;52.342;-1.290;2023-08-20T02:07:10;100527.23;;;20.77;98.34
28027;BME280;15344;52.342;-1.290;2023-08-20T02:09:35;100529.92;;;20.82;98.25
28027;BME280;15344;52.342;-1.290;2023-08-20T02:12:00;100526.51;;;20.98;96.90
28027;BME280;15344;52.342;-1.290;2023-08-20T02:14:25;100530.15;;;20.83;96.75
28027;BME280;15344;52.342;-1.290;2023-08-20T02:16:51;100532.83;;;21.36;94.82
28027;BME280;15344;52.342;-1.290;2023-08-20T02:19:16;100530.35;;;20.85;97.17
28027;BME280;15344;52.342;-1.290;2023-08-20T02:21:41;100526.47;;;20.54;99.50
28027;BME280;15344;52.342;-1.290;2023-08-20T02:24:06;100526.53;;;20.70;97.73
28027;BME280;15344;52.342;-1.290;2023-08-20T02:26:31;100530.86;;;20.84;96.93
28027;BME280;15344;52.342;-1.290;2023-08-20T02:28:56;100539.89;;;20.10;98.90
28027;BME280;15344;52.342;-1.290;2023-08-20T02:31:21;100541.78;;;20.35;98.65
28027;BME280;15344;52.342;-1.290;2023-08-20T02:33:47;100541.67;;;20.09;100.00
28027;BME280;15344;52.342;-1.290;2023-08-20T02:36:11;100540.24;;;20.32;100.00
28027;BME280;15344;52.342;-1.290;2023-08-20T02:38:37;100539.47;;;20.02;99.86
28027;BME280;15344;52.342;-1.290;2023-08-20T02:41:02;100537.45;;;20.31;99.14
28027;BME280;15344;52.342;-1.290;2023-08-20T02:43:27;100530.79;;;20.04;99.25
28027;BME280;15344;52.342;-1.290;2023-08-20T02:45:53;100534.13;;;20.23;98.77
28027;BME280;15344;52.342;-1.290;2023-08-20T02:48:18;100534.72;;;20.79;98.29
28027;BME280;15344;52.342;-1.290;2023-08-20T02:50:43;100534.80;;;20.34;99.55
28027;BME280;15344;52.342;-1.290;2023-08-20T02:53:08;100539.23;;;20.26;98.95
28027;BME280;15344;52.342;-1.290;2023-08-20T02:55:34;100541.55;;;20.37;98.27
28027;BME280;15344;52.342;-1.290;2023-08-20T02:57:59;100544.85;;;19.77;100.00
28027;BME280;15344;52.342;-1.290;2023-08-20T03:00:24;100546.06;;;19.78;100.00
28027;BME280;15344;52.342;-1.290;2023-08-20T03:02:49;100551.43;;;19.40;100.00
28027;BME280;15344;52.342;-1.290;2023-08-20T03:05:14;100551.50;;;19.34;100.00
28027;BME280;15344;52.342;-1.290;2023-08-20T03:07:39;100553.04;;;19.24;100.00
28027;BME280;15344;52.342;-1.290;2023-08-20T03:10:05;100553.91;;;19.29;100.00
28027;BME280;15344;52.342;-1.290;2023-08-20T03:12:30;100556.19;;;18.74;100.00
28027;BME280;15344;52.342;-1.290;2023-08-20T03:14:55;100557.75;;;19.07;100.00
28027;BME280;15344;52.342;-1.290;2023-08-20T03:17:20;100559.38;;;19.62;100.00
28027;BME280;15344;52.342;-1.290;2023-08-20T03:19:54;100559.00;;;20.13;100.00
28027;BME280;15344;52.342;-1.290;2023-08-20T03:22:10;100564.86;;;18.92;100.00
28027;BME280;15344;52.342;-1.290;2023-08-20T03:24:36;100567.46;;;19.09;100.00
28027;BME280;15344;52.342;-1.290;2023-08-20T03:27:01;100569.46;;;20.09;100.00
28027;BME280;15344;52.342;-1.290;2023-08-20T03:29:27;100576.28;;;20.11;100.00
28027;BME280;15344;52.342;-1.290;2023-08-20T03:31:52;100573.82;;;19.81;100.00
28027;BME280;15344;52.342;-1.290;2023-08-20T03:34:17;100575.71;;;20.21;100.00
28027;BME280;15344;52.342;-1.290;2023-08-20T03:36:42;100570.84;;;20.18;100.00
28027;BME280;15344;52.342;-1.290;2023-08-20T03:39:08;100573.90;;;19.95;100.00
28027;BME280;15344;52.342;-1.290;2023-08-20T03:41:33;100572.18;;;19.98;100.00
28027;BME280;15344;52.342;-1.290;2023-08-20T03:43:58;100568.81;;;19.96;100.00
28027;BME280;15344;52.342;-1.290;2023-08-20T03:46:23;100565.87;;;20.32;100.00
28027;BME280;15344;52.342;-1.290;2023-08-20T03:48:49;100560.97;;;20.31;100.00
28027;BME280;15344;52.342;-1.290;2023-08-20T03:51:14;100562.96;;;20.46;100.00
28027;BME280;15344;52.342;-1.290;2023-08-20T03:53:44;100569.08;;;20.55;99.73
28027;BME280;15344;52.342;-1.290;2023-08-20T03:56:05;100577.80;;;20.74;98.30
28027;BME280;15344;52.342;-1.290;2023-08-20T03:58:29;100573.31;;;20.74;97.56
28027;BME280;15344;52.342;-1.290;2023-08-20T04:00:55;100576.59;;;20.89;95.62
28027;BME280;15344;52.342;-1.290;2023-08-20T04:03:20;100579.83;;;20.88;95.75
28027;BME280;15344;52.342;-1.290;2023-08-20T04:05:45;100580.91;;;20.84;94.83
28027;BME280;15344;52.342;-1.290;2023-08-20T04:08:10;100578.26;;;20.81;94.38
28027;BME280;15344;52.342;-1.290;2023-08-20T04:10:35;100581.59;;;20.83;93.80
28027;BME280;15344;52.342;-1.290;2023-08-20T04:13:00;100582.53;;;21.04;93.06
28027;BME280;15344;52.342;-1.290;2023-08-20T04:15:25;100585.47;;;20.82;91.67
28027;BME280;15344;52.342;-1.290;2023-08-20T04:17:50;100588.85;;;20.69;92.71
28027;BME280;15344;52.342;-1.290;2023-08-20T04:20:16;100586.36;;;20.32;94.53
28027;BME280;15344;52.342;-1.290;2023-08-20T04:22:41;100592.97;;;20.41;94.28
28027;BME280;15344;52.342;-1.290;2023-08-20T04:25:07;100603.01;;;20.28;94.39
28027;BME280;15344;52.342;-1.290;2023-08-20T04:27:31;100601.02;;;20.44;93.80
28027;BME280;15344;52.342;-1.290;2023-08-20T04:29:56;100602.98;;;20.38;94.96
28027;BME280;15344;52.342;-1.290;2023-08-20T04:32:21;100599.27;;;20.38;96.26
28027;BME280;15344;52.342;-1.290;2023-08-20T04:34:46;100604.30;;;20.52;95.61
28027;BME280;15344;52.342;-1.290;2023-08-20T04:37:11;100603.97;;;21.01;95.78
28027;BME280;15344;52.342;-1.290;2023-08-20T04:39:36;100607.01;;;20.61;95.98
28027;BME280;15344;52.342;-1.290;2023-08-20T04:42:02;100611.38;;;20.73;96.14
28027;BME280;15344;52.342;-1.290;2023-08-20T04:44:27;100612.98;;;20.88;95.66
28027;BME280;15344;52.342;-1.290;2023-08-20T04:46:52;100612.23;;;20.95;96.20
28027;BME280;15344;52.342;-1.290;2023-08-20T04:49:17;100614.29;;;21.28;95.81
28027;BME280;15344;52.342;-1.290;2023-08-20T04:51:43;100614.93;;;21.02;94.97
28027;BME280;15344;52.342;-1.290;2023-08-20T04:54:08;100617.65;;;21.03;95.92
28027;BME280;15344;52.342;-1.290;2023-08-20T04:56:34;100621.21;;;21.08;95.52
28027;BME280;15344;52.342;-1.290;2023-08-20T04:58:59;100624.30;;;21.37;93.31
28027;BME280;15344;52.342;-1.290;2023-08-20T05:01:24;100626.07;;;20.85;95.85
28027;BME280;15344;52.342;-1.290;2023-08-20T05:03:49;100623.17;;;20.65;96.47
28027;BME280;15344;52.342;-1.290;2023-08-20T05:06:15;100625.80;;;20.98;96.00
28027;BME280;15344;52.342;-1.290;2023-08-20T05:08:40;100629.54;;;21.06;95.92
28027;BME280;15344;52.342;-1.290;2023-08-20T05:11:05;100629.47;;;20.99;94.35
28027;BME280;15344;52.342;-1.290;2023-08-20T05:13:30;100633.36;;;21.26;93.45
28027;BME280;15344;52.342;-1.290;2023-08-20T05:15:55;100637.33;;;21.14;93.60
28027;BME280;15344;52.342;-1.290;2023-08-20T05:18:20;100638.43;;;21.49;93.33
28027;BME280;15344;52.342;-1.290;2023-08-20T05:20:45;100634.68;;;21.22;93.03
28027;BME280;15344;52.342;-1.290;2023-08-20T05:23:10;100637.80;;;20.71;93.55
28027;BME280;15344;52.342;-1.290;2023-08-20T05:25:35;100640.16;;;21.08;93.20
28027;BME280;15344;52.342;-1.290;2023-08-20T05:28:00;100640.70;;;21.22;91.75
28027;BME280;15344;52.342;-1.290;2023-08-20T05:30:25;100648.96;;;21.31;92.87
28027;BME280;15344;52.342;-1.290;2023-08-20T05:32:50;100655.28;;;21.02;93.38
28027;BME280;15344;52.342;-1.290;2023-08-20T05:35:16;100655.35;;;21.18;93.62
28027;BME280;15344;52.342;-1.290;2023-08-20T05:37:41;100658.33;;;20.76;95.20
28027;BME280;15344;52.342;-1.290;2023-08-20T05:40:07;100663.02;;;20.84;95.82
28027;BME280;15344;52.342;-1.290;2023-08-20T05:42:31;100663.34;;;20.98;93.33
28027;BME280;15344;52.342;-1.290;2023-08-20T05:44:56;100663.49;;;21.05;94.51
28027;BME280;15344;52.342;-1.290;2023-08-20T05:47:21;100663.12;;;21.56;92.10
28027;BME280;15344;52.342;-1.290;2023-08-20T05:49:46;100664.62;;;21.47;91.36
28027;BME280;15344;52.342;-1.290;2023-08-20T05:52:11;100668.01;;;21.39;92.55
28027;BME280;15344;52.342;-1.290;2023-08-20T05:54:36;100668.12;;;20.99;92.82
28027;BME280;15344;52.342;-1.290;2023-08-20T05:57:01;100673.08;;;21.55;90.15
28027;BME280;15344;52.342;-1.290;2023-08-20T05:59:27;100673.48;;;21.15;92.06
28027;BME280;15344;52.342;-1.290;2023-08-20T06:01:53;100680.44;;;20.56;92.92
28027;BME280;15344;52.342;-1.290;2023-08-20T06:04:17;100675.43;;;20.83;92.53
28027;BME280;15344;52.342;-1.290;2023-08-20T06:06:42;100676.39;;;20.77;92.70
28027;BME280;15344;52.342;-1.290;2023-08-20T06:09:07;100677.64;;;20.28;95.13
28027;BME280;15344;52.342;-1.290;2023-08-20T06:11:32;100677.92;;;20.34;95.22
28027;BME280;15344;52.342;-1.290;2023-08-20T06:13:58;100680.21;;;20.42;95.72
28027;BME280;15344;52.342;-1.290;2023-08-20T06:16:24;100678.40;;;20.16;96.49
28027;BME280;15344;52.342;-1.290;2023-08-20T06:18:48;100687.01;;;20.47;96.14
28027;BME280;15344;52.342;-1.290;2023-08-20T06:21:13;100693.86;;;19.88;97.89
28027;BME280;15344;52.342;-1.290;2023-08-20T06:23:38;100696.77;;;20.24;97.61
28027;BME280;15344;52.342;-1.290;2023-08-20T06:26:04;100693.24;;;20.57;95.61
28027;BME280;15344;52.342;-1.290;2023-08-20T06:28:29;100694.81;;;20.93;96.18
28027;BME280;15344;52.342;-1.290;2023-08-20T06:30:54;100698.75;;;20.60;96.54
28027;BME280;15344;52.342;-1.290;2023-08-20T06:33:19;100703.10;;;20.55;95.98
28027;BME280;15344;52.342;-1.290;2023-08-20T06:35:44;100705.26;;;20.55;95.45
28027;BME280;15344;52.342;-1.290;2023-08-20T06:38:09;100710.03;;;20.54;95.94
28027;BME280;15344;52.342;-1.290;2023-08-20T06:40:34;100715.49;;;20.23;98.89
28027;BME280;15344;52.342;-1.290;2023-08-20T06:43:00;100714.77;;;20.64;99.37
28027;BME280;15344;52.342;-1.290;2023-08-20T06:45:25;100720.48;;;20.57;100.00
28027;BME280;15344;52.342;-1.290;2023-08-20T06:47:50;100722.24;;;20.44;99.66
28027;BME280;15344;52.342;-1.290;2023-08-20T06:50:15;100725.09;;;20.36;100.00
28027;BME280;15344;52.342;-1.290;2023-08-20T06:52:40;100729.18;;;20.85;99.07
28027;BME280;15344;52.342;-1.290;2023-08-20T06:55:06;100729.29;;;20.74;98.44
28027;BME280;15344;52.342;-1.290;2023-08-20T06:57:30;100727.89;;;20.49;100.00
28027;BME280;15344;52.342;-1.290;2023-08-20T06:59:55;100723.36;;;20.11;100.00
28027;BME280;15344;52.342;-1.290;2023-08-20T07:02:20;100725.79;;;20.46;100.00
28027;BME280;15344;52.342;-1.290;2023-08-20T07:04:46;100726.54;;;21.05;100.00
28027;BME280;15344;52.342;-1.290;2023-08-20T07:07:12;100724.42;;;20.95;98.81
28027;BME280;15344;52.342;-1.290;2023-08-20T07:09:36;100720.87;;;20.90;99.63
28027;BME280;15344;52.342;-1.290;2023-08-20T07:12:01;100721.24;;;21.20;97.89
28027;BME280;15344;52.342;-1.290;2023-08-20T07:14:26;100716.03;;;21.36;97.32
28027;BME280;15344;52.342;-1.290;2023-08-20T07:16:51;100715.88;;;21.39;96.88
28027;BME280;15344;52.342;-1.290;2023-08-20T07:19:16;100714.42;;;21.54;95.94
28027;BME280;15344;52.342;-1.290;2023-08-20T07:21:41;100720.67;;;21.76;95.70
28027;BME280;15344;52.342;-1.290;2023-08-20T07:24:07;100725.08;;;21.34;97.67
28027;BME280;15344;52.342;-1.290;2023-08-20T07:26:31;100728.82;;;21.40;96.33
28027;BME280;15344;52.342;-1.290;2023-08-20T07:28:56;100731.77;;;22.18;93.51
28027;BME280;15344;52.342;-1.290;2023-08-20T07:31:22;100735.54;;;21.52;93.01
28027;BME280;15344;52.342;-1.290;2023-08-20T07:33:47;100739.73;;;21.92;93.65
28027;BME280;15344;52.342;-1.290;2023-08-20T07:36:11;100737.82;;;21.78;93.83
28027;BME280;15344;52.342;-1.290;2023-08-20T07:38:36;100738.71;;;21.98;91.50
28027;BME280;15344;52.342;-1.290;2023-08-20T07:41:02;100738.90;;;21.88;92.39
28027;BME280;15344;52.342;-1.290;2023-08-20T07:43:27;100737.69;;;22.25;91.80
28027;BME280;15344;52.342;-1.290;2023-08-20T07:45:52;100734.50;;;22.37;89.47
28027;BME280;15344;52.342;-1.290;2023-08-20T07:48:17;100738.07;;;23.01;85.50
28027;BME280;15344;52.342;-1.290;2023-08-20T07:50:41;100741.52;;;22.36;89.87
28027;BME280;15344;52.342;-1.290;2023-08-20T07:53:07;100739.24;;;23.49;84.35
28027;BME280;15344;52.342;-1.290;2023-08-20T07:55:32;100744.87;;;23.24;83.23
28027;BME280;15344;52.342;-1.290;2023-08-20T07:57:58;100744.87;;;24.34;77.87
28027;BME280;15344;52.342;-1.290;2023-08-20T08:00:24;100743.80;;;24.09;78.66
28027;BME280;15344;52.342;-1.290;2023-08-20T08:02:50;100748.11;;;23.24;79.44
28027;BME280;15344;52.342;-1.290;2023-08-20T08:05:16;100751.02;;;23.30;82.36
28027;BME280;15344;52.342;-1.290;2023-08-20T08:07:41;100751.71;;;23.38;80.27
28027;BME280;15344;52.342;-1.290;2023-08-20T08:10:08;100752.97;;;22.54;82.50
28027;BME280;15344;52.342;-1.290;2023-08-20T08:12:33;100751.72;;;22.74;82.82
28027;BME280;15344;52.342;-1.290;2023-08-20T08:14:59;100752.99;;;23.31;80.84
28027;BME280;15344;52.342;-1.290;2023-08-20T08:17:25;100758.33;;;23.41;78.51
28027;BME280;15344;52.342;-1.290;2023-08-20T08:19:51;100759.10;;;23.36;79.68
28027;BME280;15344;52.342;-1.290;2023-08-20T08:22:17;100762.22;;;22.27;83.26
28027;BME280;15344;52.342;-1.290;2023-08-20T08:24:42;100757.10;;;22.13;85.63
28027;BME280;15344;52.342;-1.290;2023-08-20T08:27:08;100757.83;;;22.74;84.52
28027;BME280;15344;52.342;-1.290;2023-08-20T08:29:34;100760.64;;;22.98;82.37
28027;BME280;15344;52.342;-1.290;2023-08-20T08:32:00;100757.97;;;24.73;79.49
28027;BME280;15344;52.342;-1.290;2023-08-20T08:34:25;100756.27;;;23.99;75.94
28027;BME280;15344;52.342;-1.290;2023-08-20T08:36:50;100753.98;;;25.50;73.65
28027;BME280;15344;52.342;-1.290;2023-08-20T08:39:16;100750.42;;;25.43;69.51
28027;BME280;15344;52.342;-1.290;2023-08-20T08:41:42;100753.68;;;26.85;66.94
28027;BME280;15344;52.342;-1.290;2023-08-20T08:44:09;100753.94;;;27.39;62.66
28027;BME280;15344;52.342;-1.290;2023-08-20T08:46:35;100754.79;;;28.41;60.65
28027;BME280;15344;52.342;-1.290;2023-08-20T08:48:59;100756.31;;;28.21;57.48
28027;BME280;15344;52.342;-1.290;2023-08-20T08:51:25;100761.13;;;29.93;51.46
28027;BME280;15344;52.342;-1.290;2023-08-20T08:53:50;100765.07;;;29.07;52.16
28027;BME280;15344;52.342;-1.290;2023-08-20T08:56:17;100767.43;;;28.82;50.82
28027;BME280;15344;52.342;-1.290;2023-08-20T08:58:42;100770.21;;;28.48;52.23
28027;BME280;15344;52.342;-1.290;2023-08-20T09:01:07;100768.00;;;27.66;53.20
28027;BME280;15344;52.342;-1.290;2023-08-20T09:03:33;100770.70;;;27.97;55.92
28027;BME280;15344;52.342;-1.290;2023-08-20T09:06:00;100776.87;;;27.14;54.92
28027;BME280;15344;52.342;-1.290;2023-08-20T09:08:28;100771.78;;;26.56;57.37
28027;BME280;15344;52.342;-1.290;2023-08-20T09:10:51;100769.33;;;26.60;60.59
28027;BME280;15344;52.342;-1.290;2023-08-20T09:13:16;100771.37;;;28.23;57.18
28027;BME280;15344;52.342;-1.290;2023-08-20T09:15:42;100773.39;;;27.70;55.51
28027;BME280;15344;52.342;-1.290;2023-08-20T09:18:09;100768.75;;;27.96;55.22
28027;BME280;15344;52.342;-1.290;2023-08-20T09:20:35;100770.43;;;27.86;52.82
28027;BME280;15344;52.342;-1.290;2023-08-20T09:22:59;100771.20;;;26.83;55.38
28027;BME280;15344;52.342;-1.290;2023-08-20T09:25:24;100772.45;;;27.50;54.10
28027;BME280;15344;52.342;-1.290;2023-08-20T09:27:50;100771.54;;;26.18;56.88
28027;BME280;15344;52.342;-1.290;2023-08-20T09:30:18;100768.92;;;26.91;57.42
28027;BME280;15344;52.342;-1.290;2023-08-20T09:32:42;100766.52;;;27.64;55.60
28027;BME280;15344;52.342;-1.290;2023-08-20T09:35:17;100759.50;;;27.79;55.74
28027;BME280;15344;52.342;-1.290;2023-08-20T09:37:33;100763.15;;;29.11;52.90
28027;BME280;15344;52.342;-1.290;2023-08-20T09:39:59;100758.56;;;29.67;51.97
28027;BME280;15344;52.342;-1.290;2023-08-20T09:42:26;100753.64;;;30.67;50.58
28027;BME280;15344;52.342;-1.290;2023-08-20T09:44:52;100755.40;;;31.90;49.04
28027;BME280;15344;52.342;-1.290;2023-08-20T09:47:16;100750.59;;;31.53;46.11
28027;BME280;15344;52.342;-1.290;2023-08-20T09:49:43;100749.54;;;31.90;42.24
28027;BME280;15344;52.342;-1.290;2023-08-20T09:52:08;100750.30;;;31.48;43.91
28027;BME280;15344;52.342;-1.290;2023-08-20T09:54:45;100749.47;;;30.23;44.23
28027;BME280;15344;52.342;-1.290;2023-08-20T09:57:01;100750.76;;;31.08;45.36
28027;BME280;15344;52.342;-1.290;2023-08-20T09:59:24;100749.73;;;31.17;43.62
28027;BME280;15344;52.342;-1.290;2023-08-20T10:01:50;100743.30;;;31.35;44.36
28027;BME280;15344;52.342;-1.290;2023-08-20T10:04:16;100743.41;;;30.46;43.54
28027;BME280;15344;52.342;-1.290;2023-08-20T10:06:41;100749.00;;;30.62;45.58
28027;BME280;15344;52.342;-1.290;2023-08-20T10:09:07;100744.75;;;30.33;44.67
28027;BME280;15344;52.342;-1.290;2023-08-20T10:11:32;100750.54;;;31.12;43.77
28027;BME280;15344;52.342;-1.290;2023-08-20T10:13:57;100753.18;;;30.78;43.24
28027;BME280;15344;52.342;-1.290;2023-08-20T10:16:24;100753.66;;;31.36;41.64
28027;BME280;15344;52.342;-1.290;2023-08-20T10:18:49;100749.27;;;32.41;40.66
28027;BME280;15344;52.342;-1.290;2023-08-20T10:21:14;100753.68;;;30.99;41.21
28027;BME280;15344;52.342;-1.290;2023-08-20T10:23:40;100751.62;;;30.91;42.46
28027;BME280;15344;52.342;-1.290;2023-08-20T10:26:08;100749.82;;;31.73;43.28
28027;BME280;15344;52.342;-1.290;2023-08-20T10:28:31;100748.62;;;30.85;43.83
28027;BME280;15344;52.342;-1.290;2023-08-20T10:31:04;100752.62;;;31.29;42.44
28027;BME280;15344;52.342;-1.290;2023-08-20T10:33:22;100748.42;;;30.20;42.77
28027;BME280;15344;52.342;-1.290;2023-08-20T10:35:48;100744.91;;;30.25;42.85
28027;BME280;15344;52.342;-1.290;2023-08-20T10:38:15;100746.60;;;30.43;43.96
28027;BME280;15344;52.342;-1.290;2023-08-20T10:40:48;100745.37;;;29.68;42.86
28027;BME280;15344;52.342;-1.290;2023-08-20T10:43:05;100751.80;;;28.51;46.23
28027;BME280;15344;52.342;-1.290;2023-08-20T10:47:57;100750.75;;;28.70;46.28
28027;BME280;15344;52.342;-1.290;2023-08-20T10:50:22;100748.72;;;28.37;48.08
28027;BME280;15344;52.342;-1.290;2023-08-20T10:52:48;100742.47;;;28.16;50.20
28027;BME280;15344;52.342;-1.290;2023-08-20T10:55:13;100747.09;;;28.38;50.14
28027;BME280;15344;52.342;-1.290;2023-08-20T10:57:39;100747.26;;;28.76;48.70
28027;BME280;15344;52.342;-1.290;2023-08-20T11:00:06;100748.66;;;29.33;45.90
28027;BME280;15344;52.342;-1.290;2023-08-20T11:02:31;100752.82;;;28.44;45.86
28027;BME280;15344;52.342;-1.290;2023-08-20T11:04:56;100749.50;;;27.64;47.25
28027;BME280;15344;52.342;-1.290;2023-08-20T11:07:23;100750.57;;;28.05;47.94
28027;BME280;15344;52.342;-1.290;2023-08-20T11:09:47;100742.59;;;27.88;48.42
28027;BME280;15344;52.342;-1.290;2023-08-20T11:12:15;100742.24;;;27.65;48.98
28027;BME280;15344;52.342;-1.290;2023-08-20T11:14:39;100741.57;;;27.49;46.44
28027;BME280;15344;52.342;-1.290;2023-08-20T11:17:05;100741.64;;;27.72;50.54
28027;BME280;15344;52.342;-1.290;2023-08-20T11:19:31;100745.82;;;27.31;50.63
28027;BME280;15344;52.342;-1.290;2023-08-20T11:21:57;100740.82;;;27.55;47.67
28027;BME280;15344;52.342;-1.290;2023-08-20T11:24:22;100738.28;;;27.65;48.21
28027;BME280;15344;52.342;-1.290;2023-08-20T11:26:48;100735.61;;;27.14;48.62
28027;BME280;15344;52.342;-1.290;2023-08-20T11:29:15;100731.99;;;27.41;49.61
28027;BME280;15344;52.342;-1.290;2023-08-20T11:31:40;100732.85;;;27.01;50.67
28027;BME280;15344;52.342;-1.290;2023-08-20T11:34:06;100742.07;;;27.24;49.50
28027;BME280;15344;52.342;-1.290;2023-08-20T11:36:31;100738.83;;;27.25;50.17
28027;BME280;15344;52.342;-1.290;2023-08-20T11:38:56;100737.08;;;27.32;50.32
28027;BME280;15344;52.342;-1.290;2023-08-20T11:41:23;100736.65;;;27.48;49.16
28027;BME280;15344;52.342;-1.290;2023-08-20T11:43:48;100732.88;;;27.14;50.64
28027;BME280;15344;52.342;-1.290;2023-08-20T11:46:14;100721.50;;;27.48;50.99
28027;BME280;15344;52.342;-1.290;2023-08-20T11:51:05;100725.26;;;27.83;49.23
28027;BME280;15344;52.342;-1.290;2023-08-20T11:53:31;100727.98;;;27.91;47.66
28027;BME280;15344;52.342;-1.290;2023-08-20T11:55:56;100725.53;;;27.37;48.68
28027;BME280;15344;52.342;-1.290;2023-08-20T11:58:22;100725.45;;;27.73;49.50
28027;BME280;15344;52.342;-1.290;2023-08-20T12:00:49;100724.59;;;27.67;49.99
28027;BME280;15344;52.342;-1.290;2023-08-20T12:03:14;100733.52;;;28.16;50.61
28027;BME280;15344;52.342;-1.290;2023-08-20T12:05:41;100733.82;;;27.80;50.07
28027;BME280;15344;52.342;-1.290;2023-08-20T12:08:05;100729.67;;;27.76;51.23
28027;BME280;15344;52.342;-1.290;2023-08-20T12:10:33;100727.95;;;27.41;49.78
28027;BME280;15344;52.342;-1.290;2023-08-20T12:12:57;100729.28;;;27.70;48.41
28027;BME280;15344;52.342;-1.290;2023-08-20T12:15:23;100732.01;;;27.41;48.52
28027;BME280;15344;52.342;-1.290;2023-08-20T12:20:14;100726.74;;;26.63;53.09
28027;BME280;15344;52.342;-1.290;2023-08-20T12:22:40;100730.87;;;26.91;53.94
28027;BME280;15344;52.342;-1.290;2023-08-20T12:25:06;100729.67;;;27.38;51.35
28027;BME280;15344;52.342;-1.290;2023-08-20T12:27:31;100731.14;;;27.23;51.36
28027;BME280;15344;52.342;-1.290;2023-08-20T12:29:57;100725.45;;;27.88;50.74
28027;BME280;15344;52.342;-1.290;2023-08-20T12:32:23;100728.78;;;27.54;51.57
28027;BME280;15344;52.342;-1.290;2023-08-20T12:34:48;100724.92;;;28.36;49.94
28027;BME280;15344;52.342;-1.290;2023-08-20T12:37:14;100730.37;;;28.71;47.16